sensor_id;sensor_type;location;lat;lon;timestamp;pressure;altitude;pressure_sealevel;temperature;humidity
41246;BME280;53880;47.526;18.986;2023-04-01T00:02:00;98344.66;;;21.46;56.14
41246;BME280;53880;47.526;18.986;2023-04-01T00:04:15;98342.19;;;21.45;56.13
41246;BME280;53880;47.526;18.986;2023-04-01T00:06:31;98336.84;;;21.45;56.11
41246;BME280;53880;47.526;18.986;2023-04-01T00:08:46;98334.56;;;21.42;56.00
41246;BME280;53880;47.526;18.986;2023-04-01T00:11:01;98342.81;;;21.40;56.15
41246;BME280;53880;47.526;18.986;2023-04-01T00:13:17;98351.91;;;21.39;56.31
41246;BME280;53880;47.526;18.986;2023-04-01T00:15:33;98350.22;;;21.38;56.28
41246;BME280;53880;47.526;18.986;2023-04-01T00:17:49;98345.25;;;21.35;56.14
41246;BME280;53880;47.526;18.986;2023-04-01T00:20:05;98336.44;;;21.35;55.96
41246;BME280;53880;47.526;18.986;2023-04-01T00:22:23;98341.97;;;21.33;55.93
41246;BME280;53880;47.526;18.986;2023-04-01T00:24:38;98336.81;;;21.32;56.04
41246;BME280;53880;47.526;18.986;2023-04-01T00:26:56;98343.22;;;21.31;56.23
41246;BME280;53880;47.526;18.986;2023-04-01T00:29:11;98332.69;;;21.29;56.27
41246;BME280;53880;47.526;18.986;2023-04-01T00:31:27;98336.41;;;21.28;56.02
41246;BME280;53880;47.526;18.986;2023-04-01T00:33:43;98341.97;;;21.26;56.27
41246;BME280;53880;47.526;18.986;2023-04-01T00:36:13;98343.84;;;21.26;56.31
41246;BME280;53880;47.526;18.986;2023-04-01T00:38:30;98331.66;;;21.23;56.43
41246;BME280;53880;47.526;18.986;2023-04-01T00:40:46;98325.47;;;21.23;56.34
41246;BME280;53880;47.526;18.986;2023-04-01T00:43:03;98325.88;;;21.20;56.35
41246;BME280;53880;47.526;18.986;2023-04-01T00:45:37;98322.38;;;21.19;56.15
41246;BME280;53880;47.526;18.986;2023-04-01T00:47:53;98320.72;;;21.18;56.39
41246;BME280;53880;47.526;18.986;2023-04-01T00:50:09;98326.28;;;21.17;56.18
41246;BME280;53880;47.526;18.986;2023-04-01T00:52:28;98326.28;;;21.17;56.36
41246;BME280;53880;47.526;18.986;2023-04-01T00:54:47;98321.16;;;21.15;56.40
41246;BME280;53880;47.526;18.986;2023-04-01T00:57:19;98317.63;;;21.15;56.39
41246;BME280;53880;47.526;18.986;2023-04-01T00:59:43;98314.53;;;21.11;56.52
41246;BME280;53880;47.526;18.986;2023-04-01T01:02:01;98318.88;;;21.12;56.51
41246;BME280;53880;47.526;18.986;2023-04-01T01:04:27;98316.41;;;21.11;56.11
41246;BME280;53880;47.526;18.986;2023-04-01T01:12:47;98312.28;;;21.08;56.38
41246;BME280;53880;47.526;18.986;2023-04-01T01:15:25;98320.47;;;21.07;56.48
41246;BME280;53880;47.526;18.986;2023-04-01T01:18:12;98318.00;;;21.05;56.32
41246;BME280;53880;47.526;18.986;2023-04-01T01:31:25;98308.94;;;21.00;56.01
41246;BME280;53880;47.526;18.986;2023-04-01T01:36:13;98305.00;;;20.96;55.98
41246;BME280;53880;47.526;18.986;2023-04-01T01:38:33;98306.84;;;20.95;56.02
41246;BME280;53880;47.526;18.986;2023-04-01T01:40:56;98304.38;;;20.94;56.02
41246;BME280;53880;47.526;18.986;2023-04-01T01:43:21;98307.06;;;20.94;56.20
41246;BME280;53880;47.526;18.986;2023-04-01T01:45:45;98316.94;;;20.93;56.08
41246;BME280;53880;47.526;18.986;2023-04-01T01:48:04;98304.56;;;20.92;55.92
41246;BME280;53880;47.526;18.986;2023-04-01T01:50:21;98301.06;;;20.92;55.92
41246;BME280;53880;47.526;18.986;2023-04-01T01:52:37;98295.91;;;20.90;56.03
41246;BME280;53880;47.526;18.986;2023-04-01T01:54:55;98309.50;;;20.89;56.04
41246;BME280;53880;47.526;18.986;2023-04-01T01:57:14;98306.00;;;20.88;56.14
41246;BME280;53880;47.526;18.986;2023-04-01T01:59:38;98305.16;;;20.88;56.01
41246;BME280;53880;47.526;18.986;2023-04-01T02:01:57;98309.91;;;20.86;56.06
41246;BME280;53880;47.526;18.986;2023-04-01T02:04:15;98305.59;;;20.85;56.19
41246;BME280;53880;47.526;18.986;2023-04-01T02:06:37;98304.75;;;20.84;56.04
41246;BME280;53880;47.526;18.986;2023-04-01T02:09:00;98304.75;;;20.84;55.96
41246;BME280;53880;47.526;18.986;2023-04-01T02:11:23;98302.28;;;20.83;56.04
41246;BME280;53880;47.526;18.986;2023-04-01T02:16:21;98303.31;;;20.82;55.92
41246;BME280;53880;47.526;18.986;2023-04-01T02:18:39;98299.78;;;20.81;56.04
41246;BME280;53880;47.526;18.986;2023-04-01T02:20:57;98303.50;;;20.80;55.82
41246;BME280;53880;47.526;18.986;2023-04-01T02:23:16;98297.31;;;20.80;56.08
41246;BME280;53880;47.526;18.986;2023-04-01T02:25:36;98296.50;;;20.79;55.80
41246;BME280;53880;47.526;18.986;2023-04-01T02:27:56;98299.38;;;20.78;55.93
41246;BME280;53880;47.526;18.986;2023-04-01T02:30:16;98299.38;;;20.78;55.88
41246;BME280;53880;47.526;18.986;2023-04-01T02:32:34;98292.34;;;20.77;56.00
41246;BME280;53880;47.526;18.986;2023-04-01T02:34:53;98289.06;;;20.75;56.00
41246;BME280;53880;47.526;18.986;2023-04-01T02:37:10;98284.53;;;20.75;55.93
41246;BME280;53880;47.526;18.986;2023-04-01T02:39:26;98285.38;;;20.76;55.74
41246;BME280;53880;47.526;18.986;2023-04-01T02:41:44;98285.59;;;20.74;55.71
41246;BME280;53880;47.526;18.986;2023-04-01T02:43:59;98280.22;;;20.74;55.86
41246;BME280;53880;47.526;18.986;2023-04-01T02:46:15;98280.22;;;20.74;56.05
41246;BME280;53880;47.526;18.986;2023-04-01T02:48:30;98280.41;;;20.73;55.94
41246;BME280;53880;47.526;18.986;2023-04-01T02:50:46;98284.13;;;20.72;56.07
41246;BME280;53880;47.526;18.986;2023-04-01T02:53:03;98285.34;;;20.69;56.15
41246;BME280;53880;47.526;18.986;2023-04-01T02:55:20;98287.00;;;20.70;55.98
41246;BME280;53880;47.526;18.986;2023-04-01T02:57:35;98288.25;;;20.68;55.99
41246;BME280;53880;47.526;18.986;2023-04-01T02:59:50;98297.91;;;20.69;56.07
41246;BME280;53880;47.526;18.986;2023-04-01T03:02:05;98290.09;;;20.67;56.00
41246;BME280;53880;47.526;18.986;2023-04-01T03:04:22;98298.09;;;20.67;55.94
41246;BME280;53880;47.526;18.986;2023-04-01T03:06:37;98306.34;;;20.66;55.95
41246;BME280;53880;47.526;18.986;2023-04-01T03:08:52;98294.81;;;20.65;56.02
41246;BME280;53880;47.526;18.986;2023-04-01T03:11:07;98291.31;;;20.65;55.98
41246;BME280;53880;47.526;18.986;2023-04-01T03:13:25;98297.69;;;20.64;55.72
41246;BME280;53880;47.526;18.986;2023-04-01T03:15:40;98297.69;;;20.64;55.85
41246;BME280;53880;47.526;18.986;2023-04-01T03:17:55;98296.03;;;20.63;55.89
41246;BME280;53880;47.526;18.986;2023-04-01T03:20:11;98289.03;;;20.62;55.79
41246;BME280;53880;47.526;18.986;2023-04-01T03:22:26;98293.34;;;20.63;55.96
41246;BME280;53880;47.526;18.986;2023-04-01T03:24:41;98305.91;;;20.62;55.96
41246;BME280;53880;47.526;18.986;2023-04-01T03:26:56;98309.63;;;20.61;55.82
41246;BME280;53880;47.526;18.986;2023-04-01T03:29:13;98314.97;;;20.61;55.73
41246;BME280;53880;47.526;18.986;2023-04-01T03:31:30;98313.31;;;20.60;55.67
41246;BME280;53880;47.526;18.986;2023-04-01T03:33:46;98314.34;;;20.59;55.90
41246;BME280;53880;47.526;18.986;2023-04-01T03:36:04;98317.03;;;20.59;55.90
41246;BME280;53880;47.526;18.986;2023-04-01T03:38:20;98319.06;;;20.57;55.99
41246;BME280;53880;47.526;18.986;2023-04-01T03:40:36;98314.53;;;20.58;55.91
41246;BME280;53880;47.526;18.986;2023-04-01T03:42:53;98319.25;;;20.56;55.78
41246;BME280;53880;47.526;18.986;2023-04-01T03:45:08;98323.81;;;20.55;55.67
41246;BME280;53880;47.526;18.986;2023-04-01T03:47:24;98326.47;;;20.55;55.62
41246;BME280;53880;47.526;18.986;2023-04-01T03:49:39;98323.81;;;20.55;55.89
41246;BME280;53880;47.526;18.986;2023-04-01T03:51:54;98320.47;;;20.53;55.94
41246;BME280;53880;47.526;18.986;2023-04-01T03:54:11;98331.00;;;20.55;55.87
41246;BME280;53880;47.526;18.986;2023-04-01T03:56:26;98328.50;;;20.53;55.85
41246;BME280;53880;47.526;18.986;2023-04-01T03:58:42;98332.22;;;20.52;55.90
41246;BME280;53880;47.526;18.986;2023-04-01T04:00:58;98330.53;;;20.51;55.77
41246;BME280;53880;47.526;18.986;2023-04-01T04:03:13;98343.13;;;20.50;55.90
41246;BME280;53880;47.526;18.986;2023-04-01T04:05:28;98337.78;;;20.50;56.01
41246;BME280;53880;47.526;18.986;2023-04-01T04:07:44;98337.94;;;20.49;55.93
41246;BME280;53880;47.526;18.986;2023-04-01T04:10:00;98335.28;;;20.49;55.77
41246;BME280;53880;47.526;18.986;2023-04-01T04:12:15;98330.97;;;20.48;55.74
41246;BME280;53880;47.526;18.986;2023-04-01T04:14:30;98335.47;;;20.47;55.99
41246;BME280;53880;47.526;18.986;2023-04-01T04:16:45;98331.97;;;20.47;56.10
41246;BME280;53880;47.526;18.986;2023-04-01T04:19:00;98323.16;;;20.46;55.72
41246;BME280;53880;47.526;18.986;2023-04-01T04:21:15;98332.19;;;20.45;56.00
41246;BME280;53880;47.526;18.986;2023-04-01T04:23:32;98334.84;;;20.45;55.88
41246;BME280;53880;47.526;18.986;2023-04-01T04:26:09;98335.84;;;20.44;56.08
41246;BME280;53880;47.526;18.986;2023-04-01T04:28:25;98335.22;;;20.42;55.97
41246;BME280;53880;47.526;18.986;2023-04-01T04:30:41;98334.22;;;20.43;55.78
41246;BME280;53880;47.526;18.986;2023-04-01T04:32:56;98329.88;;;20.42;55.96
41246;BME280;53880;47.526;18.986;2023-04-01T04:35:12;98332.56;;;20.42;55.76
41246;BME280;53880;47.526;18.986;2023-04-01T04:37:26;98328.25;;;20.41;55.89
41246;BME280;53880;47.526;18.986;2023-04-01T04:39:42;98328.25;;;20.41;55.97
41246;BME280;53880;47.526;18.986;2023-04-01T04:41:57;98330.09;;;20.41;55.72
41246;BME280;53880;47.526;18.986;2023-04-01T04:44:12;98326.59;;;20.40;55.93
41246;BME280;53880;47.526;18.986;2023-04-01T04:46:27;98320.44;;;20.40;55.78
41246;BME280;53880;47.526;18.986;2023-04-01T04:48:49;98334.59;;;20.40;55.91
41246;BME280;53880;47.526;18.986;2023-04-01T04:51:04;98329.47;;;20.39;55.87
41246;BME280;53880;47.526;18.986;2023-04-01T04:53:20;98324.94;;;20.39;55.74
41246;BME280;53880;47.526;18.986;2023-04-01T04:55:35;98323.28;;;20.38;55.97
41246;BME280;53880;47.526;18.986;2023-04-01T04:58:16;98327.00;;;20.37;55.86
41246;BME280;53880;47.526;18.986;2023-04-01T05:00:32;98330.47;;;20.38;55.78
41246;BME280;53880;47.526;18.986;2023-04-01T05:02:49;98323.50;;;20.37;55.84
41246;BME280;53880;47.526;18.986;2023-04-01T05:05:06;98323.28;;;20.38;56.03
41246;BME280;53880;47.526;18.986;2023-04-01T05:07:21;98325.56;;;20.41;55.74
41246;BME280;53880;47.526;18.986;2023-04-01T05:09:36;98324.34;;;20.44;55.83
41246;BME280;53880;47.526;18.986;2023-04-01T05:11:52;98327.06;;;20.50;55.77
41246;BME280;53880;47.526;18.986;2023-04-01T05:14:16;98328.72;;;20.58;55.82
41246;BME280;53880;47.526;18.986;2023-04-01T05:16:35;98326.72;;;20.67;55.83
41246;BME280;53880;47.526;18.986;2023-04-01T05:18:50;98324.06;;;20.73;55.50
41246;BME280;53880;47.526;18.986;2023-04-01T05:21:07;98321.81;;;20.83;55.56
41246;BME280;53880;47.526;18.986;2023-04-01T05:23:23;98330.50;;;20.92;55.17
41246;BME280;53880;47.526;18.986;2023-04-01T05:25:38;98324.78;;;21.01;54.96
41246;BME280;53880;47.526;18.986;2023-04-01T05:27:54;98327.28;;;21.09;54.63
41246;BME280;53880;47.526;18.986;2023-04-01T05:30:09;98337.00;;;21.17;54.67
41246;BME280;53880;47.526;18.986;2023-04-01T05:32:35;98342.16;;;21.25;54.59
41246;BME280;53880;47.526;18.986;2023-04-01T05:34:51;98337.03;;;21.30;54.51
41246;BME280;53880;47.526;18.986;2023-04-01T05:37:08;98332.91;;;21.34;54.34
41246;BME280;53880;47.526;18.986;2023-04-01T05:39:24;98335.16;;;21.37;54.53
41246;BME280;53880;47.526;18.986;2023-04-01T05:41:42;98338.28;;;21.41;54.48
41246;BME280;53880;47.526;18.986;2023-04-01T05:43:57;98347.97;;;21.42;54.28
41246;BME280;53880;47.526;18.986;2023-04-01T05:46:41;98345.09;;;21.43;54.32
41246;BME280;53880;47.526;18.986;2023-04-01T05:49:03;98336.00;;;21.44;54.57
41246;BME280;53880;47.526;18.986;2023-04-01T05:51:21;98339.53;;;21.45;54.60
41246;BME280;53880;47.526;18.986;2023-04-01T05:53:39;98333.34;;;21.44;54.58
41246;BME280;53880;47.526;18.986;2023-04-01T05:55:54;98337.06;;;21.43;54.66
41246;BME280;53880;47.526;18.986;2023-04-01T05:58:12;98329.19;;;21.42;54.41
41246;BME280;53880;47.526;18.986;2023-04-01T06:00:30;98333.94;;;21.40;54.44
41246;BME280;53880;47.526;18.986;2023-04-01T06:02:47;98332.09;;;21.40;54.30
41246;BME280;53880;47.526;18.986;2023-04-01T06:05:19;98335.81;;;21.39;54.37
41246;BME280;53880;47.526;18.986;2023-04-01T06:07:35;98337.66;;;21.39;53.98
41246;BME280;53880;47.526;18.986;2023-04-01T06:09:50;98341.56;;;21.36;53.82
41246;BME280;53880;47.526;18.986;2023-04-01T06:53:02;98357.81;;;21.15;54.63
41246;BME280;53880;47.526;18.986;2023-04-01T06:55:50;98345.44;;;21.14;54.66
41246;BME280;53880;47.526;18.986;2023-04-01T06:58:29;98349.78;;;21.15;54.66
41246;BME280;53880;47.526;18.986;2023-04-01T07:00:50;98352.44;;;21.15;54.38
41246;BME280;53880;47.526;18.986;2023-04-01T07:03:35;98346.06;;;21.16;54.60
41246;BME280;53880;47.526;18.986;2023-04-01T07:05:59;98354.91;;;21.16;54.46
41246;BME280;53880;47.526;18.986;2023-04-01T07:08:26;98351.41;;;21.16;54.60
41246;BME280;53880;47.526;18.986;2023-04-01T07:11:06;98345.88;;;21.17;54.35
41246;BME280;53880;47.526;18.986;2023-04-01T07:13:50;98343.19;;;21.17;54.26
41246;BME280;53880;47.526;18.986;2023-04-01T07:16:32;98341.53;;;21.16;54.31
41246;BME280;53880;47.526;18.986;2023-04-01T07:21:49;98334.53;;;21.15;54.51
41246;BME280;53880;47.526;18.986;2023-04-01T07:24:37;98339.06;;;21.15;54.42
41246;BME280;53880;47.526;18.986;2023-04-01T07:26:59;98339.06;;;21.15;54.40
41246;BME280;53880;47.526;18.986;2023-04-01T07:29:18;98336.56;;;21.13;54.38
41246;BME280;53880;47.526;18.986;2023-04-01T07:34:25;98348.94;;;21.14;54.32
41246;BME280;53880;47.526;18.986;2023-04-01T07:39:22;98346.88;;;21.10;54.47
41246;BME280;53880;47.526;18.986;2023-04-01T07:42:24;98344.41;;;21.08;54.57
41246;BME280;53880;47.526;18.986;2023-04-01T07:44:52;98346.47;;;21.06;54.41
41246;BME280;53880;47.526;18.986;2023-04-01T07:53:28;98346.00;;;21.03;54.52
41246;BME280;53880;47.526;18.986;2023-04-01T08:00:28;98351.94;;;20.98;54.54
41246;BME280;53880;47.526;18.986;2023-04-01T08:05:55;98351.13;;;20.98;55.33
41246;BME280;53880;47.526;18.986;2023-04-01T08:11:54;98359.59;;;21.01;55.21
41246;BME280;53880;47.526;18.986;2023-04-01T08:14:43;98361.91;;;21.04;55.52
41246;BME280;53880;47.526;18.986;2023-04-01T08:22:18;98355.28;;;21.07;54.67
41246;BME280;53880;47.526;18.986;2023-04-01T08:24:42;98359.63;;;21.08;55.16
41246;BME280;53880;47.526;18.986;2023-04-01T08:27:03;98348.31;;;21.06;54.45
41246;BME280;53880;47.526;18.986;2023-04-01T08:31:58;98354.50;;;21.06;55.19
41246;BME280;53880;47.526;18.986;2023-04-01T08:34:23;98356.53;;;21.04;54.53
41246;BME280;53880;47.526;18.986;2023-04-01T08:36:46;98349.69;;;21.02;54.65
41246;BME280;53880;47.526;18.986;2023-04-01T08:39:46;98356.06;;;21.01;54.50
41246;BME280;53880;47.526;18.986;2023-04-01T08:42:23;98356.50;;;20.98;54.40
41246;BME280;53880;47.526;18.986;2023-04-01T08:48:00;98356.66;;;20.96;54.69
41246;BME280;53880;47.526;18.986;2023-04-01T09:00:48;98366.56;;;20.89;54.47
41246;BME280;53880;47.526;18.986;2023-04-01T09:03:26;98380.75;;;20.90;54.59
41246;BME280;53880;47.526;18.986;2023-04-01T09:11:24;98361.38;;;20.88;54.35
41246;BME280;53880;47.526;18.986;2023-04-01T09:16:58;98361.78;;;20.85;54.50
41246;BME280;53880;47.526;18.986;2023-04-01T09:27:37;98357.25;;;20.79;54.51
41246;BME280;53880;47.526;18.986;2023-04-01T09:43:22;98356.03;;;20.88;54.58
41246;BME280;53880;47.526;18.986;2023-04-01T10:29:58;98367.78;;;21.54;52.96
41246;BME280;53880;47.526;18.986;2023-04-01T10:38:15;98357.47;;;21.51;52.89
41246;BME280;53880;47.526;18.986;2023-04-01T10:55:01;98354.75;;;21.44;53.01
41246;BME280;53880;47.526;18.986;2023-04-01T11:32:18;98355.94;;;21.22;52.06
41246;BME280;53880;47.526;18.986;2023-04-01T11:46:11;98353.28;;;21.09;49.78
41246;BME280;53880;47.526;18.986;2023-04-01T11:54:19;98364.38;;;21.12;50.86
41246;BME280;53880;47.526;18.986;2023-04-01T12:09:40;98355.31;;;21.20;51.45
41246;BME280;53880;47.526;18.986;2023-04-01T12:15:15;98366.28;;;21.25;51.23
41246;BME280;53880;47.526;18.986;2023-04-01T12:17:45;98353.09;;;21.23;51.58
41246;BME280;53880;47.526;18.986;2023-04-01T12:32:54;98369.16;;;21.23;52.01
41246;BME280;53880;47.526;18.986;2023-04-01T12:43:46;98363.81;;;21.23;51.96
41246;BME280;53880;47.526;18.986;2023-04-01T12:49:00;98359.47;;;21.29;52.07
41246;BME280;53880;47.526;18.986;2023-04-01T13:16:24;98346.94;;;21.43;51.92
41246;BME280;53880;47.526;18.986;2023-04-01T13:19:02;98339.75;;;21.43;51.80
41246;BME280;53880;47.526;18.986;2023-04-01T13:29:18;98356.63;;;21.44;52.16
41246;BME280;53880;47.526;18.986;2023-04-01T13:32:01;98349.84;;;21.41;52.16
41246;BME280;53880;47.526;18.986;2023-04-01T13:34:30;98359.28;;;21.37;52.18
41246;BME280;53880;47.526;18.986;2023-04-01T13:39:33;98364.63;;;21.37;51.89
41246;BME280;53880;47.526;18.986;2023-04-01T13:42:07;98368.97;;;21.38;52.05
41246;BME280;53880;47.526;18.986;2023-04-01T13:52:08;98374.13;;;21.40;52.23
41246;BME280;53880;47.526;18.986;2023-04-01T14:00:12;98377.84;;;21.39;51.92
41246;BME280;53880;47.526;18.986;2023-04-01T14:08:07;98372.50;;;21.39;52.16
41246;BME280;53880;47.526;18.986;2023-04-01T14:10:34;98363.63;;;21.38;52.00
41246;BME280;53880;47.526;18.986;2023-04-01T14:13:03;98370.81;;;21.38;52.00
41246;BME280;53880;47.526;18.986;2023-04-01T14:15:50;98367.75;;;21.41;51.90
41246;BME280;53880;47.526;18.986;2023-04-01T14:21:13;98363.41;;;21.40;51.99
41246;BME280;53880;47.526;18.986;2023-04-01T14:24:08;98358.88;;;21.40;51.88
41246;BME280;53880;47.526;18.986;2023-04-01T14:29:43;98358.88;;;21.40;51.92
41246;BME280;53880;47.526;18.986;2023-04-01T14:37:48;98355.78;;;21.30;51.79
41246;BME280;53880;47.526;18.986;2023-04-01T14:48:38;98357.81;;;21.21;51.93
41246;BME280;53880;47.526;18.986;2023-04-01T14:51:15;98352.03;;;21.18;51.95
41246;BME280;53880;47.526;18.986;2023-04-01T14:53:36;98353.91;;;21.17;51.64
41246;BME280;53880;47.526;18.986;2023-04-01T14:56:01;98352.44;;;21.15;51.81
41246;BME280;53880;47.526;18.986;2023-04-01T14:58:23;98350.59;;;21.15;51.80
41246;BME280;53880;47.526;18.986;2023-04-01T15:05:52;98356.34;;;21.12;51.75
41246;BME280;53880;47.526;18.986;2023-04-01T15:13:13;98355.94;;;21.09;51.77
41246;BME280;53880;47.526;18.986;2023-04-01T15:44:01;98368.44;;;21.02;51.77
41246;BME280;53880;47.526;18.986;2023-04-01T15:46:46;98362.25;;;21.01;51.79
41246;BME280;53880;47.526;18.986;2023-04-01T15:49:39;98373.19;;;21.00;51.93
41246;BME280;53880;47.526;18.986;2023-04-01T15:52:05;98366.16;;;20.99;51.94
41246;BME280;53880;47.526;18.986;2023-04-01T16:02:48;98369.44;;;20.94;51.95
41246;BME280;53880;47.526;18.986;2023-04-01T16:05:30;98379.34;;;20.94;52.00
41246;BME280;53880;47.526;18.986;2023-04-01T16:15:44;98394.97;;;20.90;51.95
41246;BME280;53880;47.526;18.986;2023-04-01T16:18:32;98397.84;;;20.89;52.21
41246;BME280;53880;47.526;18.986;2023-04-01T16:23:26;98399.47;;;20.90;52.26
41246;BME280;53880;47.526;18.986;2023-04-01T16:25:57;98399.47;;;20.90;52.28
41246;BME280;53880;47.526;18.986;2023-04-01T16:28:32;98407.34;;;20.91;52.12
41246;BME280;53880;47.526;18.986;2023-04-01T16:31:15;98405.66;;;20.90;52.21
41246;BME280;53880;47.526;18.986;2023-04-01T16:33:47;98413.50;;;20.92;52.45
41246;BME280;53880;47.526;18.986;2023-04-01T16:41:24;98414.19;;;21.00;52.58
41246;BME280;53880;47.526;18.986;2023-04-01T16:43:45;98419.13;;;21.03;52.66
41246;BME280;53880;47.526;18.986;2023-04-01T16:46:14;98410.72;;;21.06;52.65
41246;BME280;53880;47.526;18.986;2023-04-01T16:48:59;98421.00;;;21.09;52.73
41246;BME280;53880;47.526;18.986;2023-04-01T16:51:17;98420.00;;;21.10;52.85
41246;BME280;53880;47.526;18.986;2023-04-01T16:53:44;98422.47;;;21.12;52.98
41246;BME280;53880;47.526;18.986;2023-04-01T16:58:27;98423.91;;;21.08;52.73
41246;BME280;53880;47.526;18.986;2023-04-01T17:00:50;98426.78;;;21.06;52.79
41246;BME280;53880;47.526;18.986;2023-04-01T17:08:33;98433.94;;;20.99;52.66
41246;BME280;53880;47.526;18.986;2023-04-01T17:13:52;98437.81;;;20.97;52.51
41246;BME280;53880;47.526;18.986;2023-04-01T17:19:14;98445.22;;;20.95;52.50
41246;BME280;53880;47.526;18.986;2023-04-01T17:24:27;98453.00;;;20.90;52.65
41246;BME280;53880;47.526;18.986;2023-04-01T17:29:54;98448.28;;;20.85;52.58
41246;BME280;53880;47.526;18.986;2023-04-01T17:32:40;98454.84;;;20.83;52.65
41246;BME280;53880;47.526;18.986;2023-04-01T17:35:12;98463.88;;;20.82;52.58
41246;BME280;53880;47.526;18.986;2023-04-01T17:40:31;98473.97;;;20.80;52.45
41246;BME280;53880;47.526;18.986;2023-04-01T17:51:20;98469.84;;;20.77;52.64
41246;BME280;53880;47.526;18.986;2023-04-01T17:53:47;98478.91;;;20.76;52.64
41246;BME280;53880;47.526;18.986;2023-04-01T18:07:18;98493.25;;;20.69;52.59
41246;BME280;53880;47.526;18.986;2023-04-01T18:15:39;98512.38;;;20.66;52.32
41246;BME280;53880;47.526;18.986;2023-04-01T18:18:35;98517.91;;;20.64;52.33
41246;BME280;53880;47.526;18.986;2023-04-01T18:26:06;98519.16;;;20.62;52.46
41246;BME280;53880;47.526;18.986;2023-04-01T18:28:35;98519.34;;;20.60;52.38
41246;BME280;53880;47.526;18.986;2023-04-01T18:31:04;98525.91;;;20.58;52.53
41246;BME280;53880;47.526;18.986;2023-04-01T18:38:36;98539.47;;;20.56;52.30
41246;BME280;53880;47.526;18.986;2023-04-01T18:46:27;98546.88;;;20.54;52.33
41246;BME280;53880;47.526;18.986;2023-04-01T18:49:05;98551.22;;;20.55;52.18
41246;BME280;53880;47.526;18.986;2023-04-01T18:54:19;98554.06;;;20.53;52.23
41246;BME280;53880;47.526;18.986;2023-04-01T18:56:41;98551.59;;;20.52;52.48
41246;BME280;53880;47.526;18.986;2023-04-01T18:59:18;98543.75;;;20.50;52.18
41246;BME280;53880;47.526;18.986;2023-04-01T19:06:55;98556.50;;;20.48;52.19
41246;BME280;53880;47.526;18.986;2023-04-01T19:14:44;98554.00;;;20.47;52.14
41246;BME280;53880;47.526;18.986;2023-04-01T19:17:10;98547.84;;;20.46;52.22
41246;BME280;53880;47.526;18.986;2023-04-01T19:27:36;98546.56;;;20.42;52.21
41246;BME280;53880;47.526;18.986;2023-04-01T19:35:38;98554.34;;;20.37;52.19
41246;BME280;53880;47.526;18.986;2023-04-01T19:46:36;98568.72;;;20.36;52.24
41246;BME280;53880;47.526;18.986;2023-04-01T19:49:18;98574.06;;;20.36;51.97
41246;BME280;53880;47.526;18.986;2023-04-01T19:51:38;98577.59;;;20.37;52.00
41246;BME280;53880;47.526;18.986;2023-04-01T19:57:00;98576.63;;;20.44;52.11
41246;BME280;53880;47.526;18.986;2023-04-01T20:04:42;98575.34;;;20.62;51.37
41246;BME280;53880;47.526;18.986;2023-04-01T20:11:59;98580.94;;;20.67;49.16
41246;BME280;53880;47.526;18.986;2023-04-01T20:14:44;98572.53;;;20.70;48.51
41246;BME280;53880;47.526;18.986;2023-04-01T20:17:16;98582.81;;;20.73;47.43
41246;BME280;53880;47.526;18.986;2023-04-01T20:19:41;98580.97;;;20.73;46.86
41246;BME280;53880;47.526;18.986;2023-04-01T20:22:01;98584.28;;;20.75;46.80
41246;BME280;53880;47.526;18.986;2023-04-01T20:24:33;98575.25;;;20.76;46.10
41246;BME280;53880;47.526;18.986;2023-04-01T20:27:15;98580.41;;;20.78;45.73
41246;BME280;53880;47.526;18.986;2023-04-01T20:32:49;98569.50;;;20.79;45.10
41246;BME280;53880;47.526;18.986;2023-04-01T20:37:39;98572.00;;;20.81;44.20
41246;BME280;53880;47.526;18.986;2023-04-01T20:50:50;98593.00;;;20.84;43.21
41246;BME280;53880;47.526;18.986;2023-04-01T20:53:28;98595.88;;;20.82;43.11
41246;BME280;53880;47.526;18.986;2023-04-01T21:13:59;98601.00;;;21.05;42.11
41246;BME280;53880;47.526;18.986;2023-04-01T21:27:07;98602.72;;;21.47;42.39
41246;BME280;53880;47.526;18.986;2023-04-01T21:31:49;98605.03;;;21.50;43.18
41246;BME280;53880;47.526;18.986;2023-04-01T21:52:46;98606.22;;;21.47;45.49
41246;BME280;53880;47.526;18.986;2023-04-01T22:00:24;98607.41;;;21.38;46.44
41246;BME280;53880;47.526;18.986;2023-04-01T22:05:35;98617.88;;;21.33;46.90
41246;BME280;53880;47.526;18.986;2023-04-01T22:08:24;98620.97;;;21.30;47.15
41246;BME280;53880;47.526;18.986;2023-04-01T22:13:12;98627.94;;;21.24;47.39
41246;BME280;53880;47.526;18.986;2023-04-01T22:18:31;98619.03;;;21.17;47.44
41246;BME280;53880;47.526;18.986;2023-04-01T22:23:33;98625.00;;;21.13;47.62
41246;BME280;53880;47.526;18.986;2023-04-01T22:28:09;98631.75;;;21.09;47.64
41246;BME280;53880;47.526;18.986;2023-04-01T22:30:32;98630.28;;;21.06;47.73
41246;BME280;53880;47.526;18.986;2023-04-01T22:33:16;98635.81;;;21.05;47.86
41246;BME280;53880;47.526;18.986;2023-04-01T22:35:48;98635.19;;;21.03;48.15
41246;BME280;53880;47.526;18.986;2023-04-01T22:41:19;98642.75;;;20.99;47.86
41246;BME280;53880;47.526;18.986;2023-04-01T22:43:40;98654.47;;;20.98;47.95
41246;BME280;53880;47.526;18.986;2023-04-01T22:49:04;98654.88;;;20.95;48.09
41246;BME280;53880;47.526;18.986;2023-04-01T22:55:52;98644.56;;;20.92;48.21
41246;BME280;53880;47.526;18.986;2023-04-01T22:58:15;98650.09;;;20.91;48.02
41246;BME280;53880;47.526;18.986;2023-04-01T23:00:48;98655.47;;;20.91;48.22
41246;BME280;53880;47.526;18.986;2023-04-01T23:05:31;98665.09;;;20.85;48.09
41246;BME280;53880;47.526;18.986;2023-04-01T23:10:54;98676.19;;;20.82;47.86
41246;BME280;53880;47.526;18.986;2023-04-01T23:13:22;98678.03;;;20.82;48.10
41246;BME280;53880;47.526;18.986;2023-04-01T23:15:40;98669.16;;;20.81;47.72
41246;BME280;53880;47.526;18.986;2023-04-01T23:26:07;98689.78;;;20.81;47.81